Time;durP1;ratioP1;P1;durP2;ratioP2;P2;SDS_P1;SDS_P2;PMS_P1;PMS_P2;Temp;Humidity;BMP_temperature;BMP_pressure;BME280_temperature;BME280_humidity;BME280_pressure;Samples;Min_cycle;Max_cycle;Signal;HPM_P1;HPM_P2
2021/08/10 00:00:43;;;;;;;21.10;13.70;;;;;;;16.86;65.49;100775.75;128187;1098;22646;-78
2021/08/10 00:03:20;;;;;;;17.33;12.93;;;;;;;16.81;65.22;100780.84;128171;1098;22351;-78
2021/08/10 00:05:50;;;;;;;18.48;12.18;;;;;;;16.74;65.70;100784.48;128129;1098;22353;-78
2021/08/10 00:08:21;;;;;;;13.55;10.00;;;;;;;16.67;65.54;100787.11;128196;1098;23121;-78
2021/08/10 00:10:51;;;;;;;14.93;11.15;;;;;;;16.59;65.66;100787.25;128194;1098;23154;-77
2021/08/10 00:13:23;;;;;;;22.45;11.75;;;;;;;16.56;65.79;100783.16;128224;1097;22375;-78
2021/08/10 00:15:54;;;;;;;19.85;10.25;;;;;;;16.50;66.33;100778.60;128190;1098;22417;-78
2021/08/10 00:18:23;;;;;;;14.55;11.40;;;;;;;16.47;66.21;100779.81;128237;1095;22459;-77
2021/08/10 00:20:53;;;;;;;16.55;11.58;;;;;;;16.46;66.21;100778.17;128273;1095;22345;-78
2021/08/10 00:23:22;;;;;;;22.03;11.83;;;;;;;16.45;66.24;100781.84;128587;1095;22348;-78
2021/08/10 00:25:52;;;;;;;15.38;10.53;;;;;;;16.44;66.59;100785.53;128347;1095;22344;-77
2021/08/10 00:28:22;;;;;;;17.53;11.40;;;;;;;16.47;66.62;100779.81;128253;1095;22363;-78
2021/08/10 00:30:51;;;;;;;16.80;11.57;;;;;;;16.45;66.55;100778.35;128525;1095;22369;-78
2021/08/10 00:33:21;;;;;;;17.00;10.93;;;;;;;16.42;66.52;100776.89;128296;1095;22343;-77
2021/08/10 00:35:51;;;;;;;16.53;11.83;;;;;;;16.40;65.96;100778.95;128568;1093;24218;-80
2021/08/10 00:38:21;;;;;;;14.73;9.73;;;;;;;16.37;66.73;100774.01;128269;1095;22442;-79
2021/08/10 00:40:54;;;;;;;15.33;10.80;;;;;;;16.35;66.71;100776.03;128315;1095;24485;-78
2021/08/10 00:43:33;;;;;;;;;;;;;;;16.34;66.60;100779.73;128316;1095;22337;-78
2021/08/10 00:46:09;;;;;;;15.33;10.57;;;;;;;16.29;66.69;100779.47;128332;1095;21263;-76
2021/08/10 00:48:40;;;;;;;15.38;10.43;;;;;;;16.31;66.86;100784.63;128263;1095;24489;-78
2021/08/10 00:51:13;;;;;;;16.93;10.78;;;;;;;16.32;67.13;100775.59;128252;1095;22361;-78
2021/08/10 00:53:47;;;;;;;13.23;10.35;;;;;;;16.30;66.77;100773.14;128279;1095;22803;-77
2021/08/10 00:56:18;;;;;;;15.93;10.40;;;;;;;16.28;66.83;100780.50;128571;1095;22333;-77
2021/08/10 00:58:51;;;;;;;16.70;10.68;;;;;;;16.29;66.72;100782.14;128575;1095;22679;-77
2021/08/10 01:01:22;;;;;;;16.73;10.95;;;;;;;16.30;66.94;100778.48;128591;1095;22344;-78
2021/08/10 01:03:53;;;;;;;15.40;10.13;;;;;;;16.31;66.87;100777.45;128349;1095;22364;-77
2021/08/10 01:07:03;;;;;;;11.53;9.13;;;;;;;16.29;66.67;100773.32;128372;1095;22340;-78
2021/08/10 01:09:46;;;;;;;16.47;10.03;;;;;;;16.26;66.37;100769.23;128270;1095;22362;-78
2021/08/10 01:12:20;;;;;;;13.28;9.43;;;;;;;16.21;66.66;100769.80;128592;1095;22364;-78
2021/08/10 01:15:01;;;;;;;13.75;9.75;;;;;;;16.21;66.82;100767.13;128271;1095;22362;-79
2021/08/10 01:17:48;;;;;;;20.50;9.73;;;;;;;16.20;66.78;100762.00;128586;1093;22386;-79
2021/08/10 01:20:58;;;;;;;14.20;10.85;;;;;;;16.17;66.97;100757.88;128543;1095;22330;-77
2021/08/10 01:23:31;;;;;;;15.25;9.25;;;;;;;16.14;66.84;100758.27;128569;1095;22363;-78
2021/08/10 01:26:17;;;;;;;15.90;9.90;;;;;;;16.13;66.88;100756.63;128318;1095;22347;-78
2021/08/10 01:29:12;;;;;;;11.80;9.33;;;;;;;16.10;66.54;100759.67;128601;1093;22359;-78
2021/08/10 01:31:43;;;;;;;12.85;10.00;;;;;;;16.06;67.02;100766.42;128526;1094;24489;-78
2021/08/10 01:34:37;;;;;;;15.40;10.15;;;;;;;16.02;66.59;100769.64;128561;1095;22342;-78
2021/08/10 01:37:28;;;;;;;14.18;9.80;;;;;;;15.95;67.61;100759.75;128545;1095;22346;-78
2021/08/10 01:40:08;;;;;;;15.13;9.70;;;;;;;15.91;67.33;100763.83;128311;1094;22340;-77
2021/08/10 01:42:43;;;;;;;12.40;9.60;;;;;;;15.88;67.39;100769.53;128267;1095;25056;-79
2021/08/10 01:45:17;;;;;;;15.05;9.50;;;;;;;15.88;67.77;100771.38;128284;1095;22352;-77
2021/08/10 01:47:48;;;;;;;15.93;9.38;;;;;;;15.86;67.51;100776.06;128602;1095;22342;-78
2021/08/10 01:50:23;;;;;;;12.63;9.00;;;;;;;15.84;67.91;100762.13;128303;1093;22362;-77
2021/08/10 01:53:23;;;;;;;14.08;8.20;;;;;;;15.80;67.51;100767.02;128412;1093;23141;-77
2021/08/10 01:55:58;;;;;;;11.90;8.93;;;;;;;15.80;67.46;100764.36;128295;1095;22436;-78
2021/08/10 01:58:38;;;;;;;12.20;8.58;;;;;;;15.82;67.70;100770.30;128287;1095;22340;-77
2021/08/10 02:01:08;;;;;;;13.93;9.63;;;;;;;15.86;67.64;100765.41;128221;1095;22343;-78
2021/08/10 02:03:39;;;;;;;14.45;8.90;;;;;;;15.86;67.38;100763.59;128321;1095;22346;-77
2021/08/10 02:06:17;;;;;;;12.50;8.85;;;;;;;15.87;67.41;100765.23;128619;1093;24380;-76
2021/08/10 02:08:53;;;;;;;11.93;8.68;;;;;;;15.87;67.60;100757.23;128263;1095;22379;-77
2021/08/10 02:11:29;;;;;;;13.50;8.38;;;;;;;15.86;67.27;100758.27;128281;1095;24236;-78
2021/08/10 02:14:02;;;;;;;13.10;9.33;;;;;;;15.84;67.13;100759.47;128302;1095;22376;-78
2021/08/10 02:16:36;;;;;;;12.75;8.25;;;;;;;15.82;67.12;100758.83;128533;1095;22350;-78
2021/08/10 02:19:09;;;;;;;11.50;8.18;;;;;;;15.81;67.11;100750.02;128283;1095;22341;-78
2021/08/10 02:21:52;;;;;;;13.03;8.07;;;;;;;15.81;67.42;100758.00;128294;1095;22343;-78
2021/08/10 02:24:36;;;;;;;12.88;8.55;;;;;;;15.81;66.93;100752.67;128584;1095;24976;-77
2021/08/10 02:27:14;;;;;;;11.40;7.78;;;;;;;15.80;67.21;100739.56;128534;1095;22356;-77
2021/08/10 02:29:48;;;;;;;10.28;7.68;;;;;;;15.80;67.09;100748.38;128603;1093;22359;-77
2021/08/10 02:32:23;;;;;;;11.80;8.55;;;;;;;15.80;66.75;100756.37;128581;1095;22342;-78
2021/08/10 02:34:56;;;;;;;11.28;7.80;;;;;;;15.78;67.15;100750.39;128300;1095;22344;-78
2021/08/10 02:37:29;;;;;;;12.23;7.95;;;;;;;15.75;67.20;100748.93;128376;1095;22348;-77
2021/08/10 02:40:06;;;;;;;11.05;7.90;;;;;;;15.73;67.30;100750.16;128602;1095;22366;-78
2021/08/10 02:42:37;;;;;;;10.35;8.30;;;;;;;15.72;67.17;100743.16;128301;1095;23123;-77
2021/08/10 02:45:07;;;;;;;;;;;;;;;15.66;67.19;100746.56;128350;1095;22306;-76
2021/08/10 02:47:37;;;;;;;10.55;8.03;;;;;;;15.61;67.59;100751.66;128311;1095;21257;-78
2021/08/10 02:50:07;;;;;;;10.20;8.30;;;;;;;15.63;67.58;100742.47;128630;1095;24971;-78
2021/08/10 02:52:36;;;;;;;12.20;8.30;;;;;;;15.64;67.33;100746.77;128543;1095;22689;-79
2021/08/10 02:55:07;;;;;;;10.30;7.85;;;;;;;15.65;67.50;100750.25;128619;1093;22348;-79
2021/08/10 02:58:04;;;;;;;11.95;8.10;;;;;;;15.64;67.89;100749.42;128372;1094;22359;-79
2021/08/10 03:00:42;;;;;;;12.53;8.28;;;;;;;15.62;68.16;100750.63;128611;1095;22808;-78
2021/08/10 03:03:18;;;;;;;13.43;8.28;;;;;;;15.61;67.59;100738.34;128265;1095;22348;-78
2021/08/10 03:05:55;;;;;;;11.48;7.43;;;;;;;15.62;67.42;100734.65;128287;1095;24988;-78
2021/08/10 03:08:32;;;;;;;11.50;8.33;;;;;;;15.65;67.83;100731.61;128337;1095;22363;-78
2021/08/10 03:11:05;;;;;;;9.18;7.45;;;;;;;15.67;67.93;100734.95;128618;1095;22340;-78
2021/08/10 03:13:38;;;;;;;9.93;7.85;;;;;;;15.72;68.50;100735.17;128313;1095;22359;-77
2021/08/10 03:16:10;;;;;;;10.30;8.90;;;;;;;15.78;68.26;100737.08;128354;1093;22347;-78
2021/08/10 03:18:45;;;;;;;11.20;8.18;;;;;;;15.81;67.92;100736.70;128370;1095;22359;-79
2021/08/10 03:21:16;;;;;;;11.40;7.53;;;;;;;15.84;67.85;100740.82;128296;1095;22343;-77
2021/08/10 03:23:48;;;;;;;15.35;8.28;;;;;;;15.86;67.55;100739.62;128315;1095;22348;-78
2021/08/10 03:26:22;;;;;;;13.00;8.25;;;;;;;15.90;67.88;100740.05;128330;1095;22343;-78
2021/08/10 03:28:53;;;;;;;11.63;7.48;;;;;;;15.90;67.65;100738.21;128268;1095;22374;-79
2021/08/10 03:31:24;;;;;;;14.85;10.00;;;;;;;15.88;67.68;100732.23;128261;1095;22344;-79
2021/08/10 03:33:56;;;;;;;19.93;12.28;;;;;;;15.91;67.49;100739.84;128610;1093;22348;-79
2021/08/10 03:36:26;;;;;;;18.75;11.35;;;;;;;15.90;67.42;100740.88;128259;1095;22343;-78
2021/08/10 03:38:56;;;;;;;25.65;11.55;;;;;;;15.90;67.61;100738.21;128325;1093;24495;-76
2021/08/10 03:41:28;;;;;;;13.58;9.83;;;;;;;15.94;67.62;100739.47;128275;1095;22366;-77
2021/08/10 03:43:59;;;;;;;11.40;9.30;;;;;;;15.95;67.79;100734.95;128245;1095;22356;-79
2021/08/10 03:46:30;;;;;;;9.40;7.80;;;;;;;16.00;68.31;100735.21;128606;1093;22348;-78
2021/08/10 03:49:02;;;;;;;11.93;9.00;;;;;;;16.04;67.90;100735.64;128281;1095;22342;-77
2021/08/10 03:51:36;;;;;;;9.95;7.85;;;;;;;16.05;67.82;100738.10;128304;1095;22370;-76
2021/08/10 03:54:07;;;;;;;10.63;8.35;;;;;;;16.07;67.74;100737.92;128299;1095;22347;-77
2021/08/10 03:56:38;;;;;;;10.13;8.25;;;;;;;16.09;67.55;100743.86;128250;1095;22359;-78
2021/08/10 03:59:11;;;;;;;10.15;8.00;;;;;;;16.10;67.58;100748.20;128265;1095;24489;-77
2021/08/10 04:01:43;;;;;;;13.38;8.08;;;;;;;16.12;67.55;100749.63;128285;1095;25008;-77
2021/08/10 04:04:14;;;;;;;17.68;8.75;;;;;;;16.16;67.57;100750.06;128271;1095;22345;-77
2021/08/10 04:06:44;;;;;;;13.98;8.53;;;;;;;16.19;67.47;100749.67;128258;1095;22789;-77
2021/08/10 04:09:15;;;;;;;10.03;8.45;;;;;;;16.19;67.67;100750.52;128526;1095;23109;-78
2021/08/10 04:11:45;;;;;;;13.83;9.30;;;;;;;16.17;67.20;100746.40;128287;1095;22343;-78
2021/08/10 04:14:21;;;;;;;16.25;9.23;;;;;;;16.18;67.26;100748.03;128271;1095;22775;-77
2021/08/10 04:16:54;;;;;;;;;;;;;;;16.17;67.26;100749.06;128349;1094;24500;-78
2021/08/10 04:19:31;;;;;;;10.50;8.23;;;;;;;16.14;67.69;100752.12;128340;1095;21263;-78
2021/08/10 04:22:02;;;;;;;12.08;8.48;;;;;;;16.16;67.31;100752.72;128372;1095;22359;-77
2021/08/10 04:24:33;;;;;;;10.87;8.43;;;;;;;16.20;67.08;100748.67;128302;1095;22362;-78
2021/08/10 04:27:04;;;;;;;12.30;8.90;;;;;;;16.21;67.36;100751.13;128510;1095;22343;-78
2021/08/10 04:29:34;;;;;;;11.90;8.80;;;;;;;16.23;67.39;100745.63;128555;1093;22348;-79
2021/08/10 04:32:04;;;;;;;10.30;8.53;;;;;;;16.27;67.53;100736.21;128537;1095;24254;-78
2021/08/10 04:34:34;;;;;;;12.33;8.78;;;;;;;16.35;67.74;100737.89;128576;1095;23121;-77
2021/08/10 04:37:04;;;;;;;23.75;10.60;;;;;;;16.43;67.61;100735.90;128556;1095;24495;-78
2021/08/10 04:39:34;;;;;;;12.73;9.13;;;;;;;16.47;67.45;100738.99;128280;1095;22360;-76
2021/08/10 04:42:05;;;;;;;;;;;;;;;16.41;67.00;100732.59;128320;1095;22358;-77
2021/08/10 04:44:35;;;;;;;12.25;8.48;;;;;;;16.42;67.39;100744.89;128301;1093;23126;-78
2021/08/10 04:47:05;;;;;;;13.05;8.30;;;;;;;16.50;67.43;100735.11;128276;1095;22328;-78
2021/08/10 04:49:37;;;;;;;13.03;8.65;;;;;;;16.59;67.00;100734.73;128276;1095;22353;-78
2021/08/10 04:52:07;;;;;;;10.65;8.08;;;;;;;16.67;67.01;100731.09;128267;1095;22339;-77
2021/08/10 04:54:37;;;;;;;13.50;8.40;;;;;;;16.76;67.17;100737.94;128275;1095;22360;-77
2021/08/10 04:57:07;;;;;;;7.93;7.13;;;;;;;16.86;66.76;100730.39;128257;1095;22352;-78
2021/08/10 04:59:36;;;;;;;18.15;9.38;;;;;;;17.01;66.60;100735.55;128248;1095;22641;-77
2021/08/10 05:02:06;;;;;;;10.45;7.60;;;;;;;17.14;66.35;100732.11;128258;1095;24495;-78
2021/08/10 05:04:37;;;;;;;11.23;8.53;;;;;;;17.26;66.27;100733.17;128287;1095;24492;-77
2021/08/10 05:07:07;;;;;;;11.85;7.88;;;;;;;17.39;65.93;100735.87;128339;1095;22342;-78
2021/08/10 05:09:37;;;;;;;14.83;8.75;;;;;;;17.53;65.54;100722.53;128304;1095;24230;-78
2021/08/10 05:12:07;;;;;;;12.40;7.70;;;;;;;17.65;65.13;100729.70;128272;1095;24489;-79
2021/08/10 05:14:37;;;;;;;9.45;7.48;;;;;;;17.79;65.39;100738.60;128311;1095;22353;-79
2021/08/10 05:17:07;;;;;;;10.18;7.10;;;;;;;17.97;65.29;100734.48;128318;1095;22364;-79
2021/08/10 05:19:38;;;;;;;11.53;7.03;;;;;;;18.15;64.56;100734.65;128332;1095;22334;-78
2021/08/10 05:22:07;;;;;;;10.18;7.48;;;;;;;18.39;64.32;100730.47;128283;1095;22777;-77
2021/08/10 05:24:39;;;;;;;10.88;7.10;;;;;;;18.67;63.87;100724.03;128315;1094;22361;-78
2021/08/10 05:27:10;;;;;;;11.55;6.88;;;;;;;18.98;63.18;100723.29;128291;1095;22369;-78
2021/08/10 05:29:40;;;;;;;12.93;6.33;;;;;;;19.32;62.90;100718.56;128264;1095;22344;-77
2021/08/10 05:32:09;;;;;;;9.20;6.10;;;;;;;19.54;61.87;100713.67;128279;1095;24988;-79
2021/08/10 05:34:40;;;;;;;11.75;7.35;;;;;;;19.72;61.17;100717.24;128268;1095;22652;-77
2021/08/10 05:37:10;;;;;;;8.33;6.35;;;;;;;20.05;60.97;100713.45;128624;1095;22420;-78
2021/08/10 05:39:40;;;;;;;10.80;5.95;;;;;;;20.42;59.70;100711.60;128575;1095;22349;-80
2021/08/10 05:42:11;;;;;;;8.73;5.93;;;;;;;20.80;59.14;100704.39;128351;1095;22413;-75
2021/08/10 05:44:42;;;;;;;9.00;5.70;;;;;;;21.18;58.22;100697.87;128298;1095;22373;-76
2021/08/10 05:47:13;;;;;;;9.50;5.60;;;;;;;21.47;56.81;100705.10;128283;1093;22372;-77
2021/08/10 05:49:43;;;;;;;6.95;5.23;;;;;;;21.70;56.27;100709.69;128316;1095;22387;-77
2021/08/10 05:52:12;;;;;;;7.93;5.17;;;;;;;21.83;55.46;100712.16;128603;1094;22361;-77
2021/08/10 05:54:42;;;;;;;8.25;4.70;;;;;;;22.15;54.97;100708.28;128401;1093;22345;-77
2021/08/10 05:57:12;;;;;;;8.13;4.75;;;;;;;22.42;54.29;100704.05;128585;1095;22341;-77
2021/08/10 05:59:41;;;;;;;8.05;4.70;;;;;;;22.85;53.39;100705.44;128595;1095;22362;-77
2021/08/10 06:02:11;;;;;;;8.65;4.78;;;;;;;23.17;52.08;100707.69;128581;1093;22359;-76
2021/08/10 06:04:41;;;;;;;11.75;4.50;;;;;;;23.56;51.42;100700.53;128570;1095;22338;-77
2021/08/10 06:07:10;;;;;;;10.20;4.58;;;;;;;23.88;50.26;100708.86;128261;1095;24235;-77
2021/08/10 06:09:43;;;;;;;8.73;4.68;;;;;;;24.26;49.27;100711.81;128247;1095;22416;-77
2021/08/10 06:12:13;;;;;;;8.00;3.88;;;;;;;24.57;48.31;100708.47;128601;1095;22363;-77
2021/08/10 06:14:43;;;;;;;9.63;4.45;;;;;;;24.92;47.62;100709.12;128557;1095;22343;-77
2021/08/10 06:17:13;;;;;;;11.18;5.50;;;;;;;25.14;46.76;100696.41;128287;1095;22369;-77
2021/08/10 06:19:44;;;;;;;10.15;4.50;;;;;;;25.42;45.92;100708.00;128304;1095;22369;-77
2021/08/10 06:22:13;;;;;;;10.98;3.58;;;;;;;25.67;45.07;100710.11;128277;1095;22351;-77
2021/08/10 06:24:43;;;;;;;10.73;3.90;;;;;;;25.89;44.16;100705.43;128232;1095;23210;-78
2021/08/10 06:27:14;;;;;;;7.55;3.60;;;;;;;26.20;43.70;100702.89;128331;1095;24464;-77
2021/08/10 06:29:43;;;;;;;8.85;4.03;;;;;;;26.50;42.88;100705.77;128305;1094;22348;-78
2021/08/10 06:32:14;;;;;;;6.50;3.10;;;;;;;26.86;42.25;100702.36;128444;1095;22488;-78
2021/08/10 06:34:44;;;;;;;6.53;3.30;;;;;;;27.12;41.56;100703.20;128891;1095;22361;-78
2021/08/10 06:37:14;;;;;;;6.67;3.33;;;;;;;27.29;40.58;100702.97;128392;1095;22792;-78
2021/08/10 06:39:44;;;;;;;7.90;3.90;;;;;;;27.50;40.42;100698.38;128404;1095;22346;-78
2021/08/10 06:42:13;;;;;;;8.93;2.95;;;;;;;27.61;39.74;100708.13;128598;1095;22350;-78
2021/08/10 06:44:47;;;;;;;9.13;3.65;;;;;;;27.84;39.67;100709.49;128387;1095;22315;-78
2021/08/10 06:47:17;;;;;;;7.88;3.58;;;;;;;28.07;38.85;100713.52;128351;1094;24486;-77
2021/08/10 06:49:49;;;;;;;10.00;4.73;;;;;;;28.44;38.77;100715.87;128491;1098;22374;-78
2021/08/10 06:52:19;;;;;;;6.60;3.70;;;;;;;28.73;37.91;100717.92;128015;1098;22370;-78
2021/08/10 06:54:50;;;;;;;9.20;3.60;;;;;;;28.84;37.64;100709.41;128344;1098;22365;-77
2021/08/10 06:57:19;;;;;;;7.98;3.45;;;;;;;29.01;36.81;100710.97;128230;1098;22333;-78
2021/08/10 06:59:50;;;;;;;7.70;3.65;;;;;;;29.18;37.20;100716.02;128210;1098;23289;-78
2021/08/10 07:02:20;;;;;;;7.53;3.43;;;;;;;29.39;36.27;100709.34;128297;1098;23112;-78
2021/08/10 07:04:51;;;;;;;5.58;2.85;;;;;;;29.56;35.65;100706.20;128250;1098;22359;-78
2021/08/10 07:07:23;;;;;;;4.83;3.30;;;;;;;29.66;35.20;100699.89;128525;1095;22356;-79
2021/08/10 07:09:55;;;;;;;13.05;3.48;;;;;;;29.79;34.98;100701.94;128259;1095;24988;-78
2021/08/10 07:12:25;;;;;;;9.43;2.90;;;;;;;29.90;34.83;100698.00;128631;1093;22334;-77
2021/08/10 07:14:56;;;;;;;4.93;2.23;;;;;;;30.07;34.14;100699.45;128588;1095;24085;-77
2021/08/10 07:17:26;;;;;;;5.80;3.15;;;;;;;30.23;34.06;100700.94;128383;1095;23572;-78
2021/08/10 07:19:57;;;;;;;3.93;3.13;;;;;;;30.30;33.64;100700.58;128635;1095;22343;-78
2021/08/10 07:22:27;;;;;;;3.37;2.33;;;;;;;30.28;32.96;100698.13;128413;1095;24466;-78
2021/08/10 07:25:05;;;;;;;9.43;2.23;;;;;;;30.18;32.26;100704.52;128811;1095;24163;-77
2021/08/10 07:27:36;;;;;;;5.88;2.08;;;;;;;30.22;32.58;100702.02;128656;1095;22340;-77
2021/08/10 07:30:06;;;;;;;3.90;2.30;;;;;;;30.18;32.06;100699.06;128635;1095;22356;-78
2021/08/10 07:32:37;;;;;;;6.50;2.15;;;;;;;30.15;32.12;100704.25;128393;1095;24489;-78
2021/08/10 07:35:08;;;;;;;5.75;1.80;;;;;;;30.27;32.39;100701.16;128343;1095;22638;-77
2021/08/10 07:37:43;;;;;;;5.23;2.18;;;;;;;30.36;32.31;100708.41;128581;1095;22382;-78
2021/08/10 07:40:14;;;;;;;3.83;2.43;;;;;;;30.46;32.04;100697.38;128631;1095;22363;-79
2021/08/10 07:42:47;;;;;;;5.08;1.95;;;;;;;30.62;32.36;100691.70;128350;1095;22359;-78
2021/08/10 07:45:19;;;;;;;4.33;2.40;;;;;;;30.83;31.84;100693.08;128494;1095;22637;-78
2021/08/10 07:47:49;;;;;;;7.37;3.40;;;;;;;30.88;31.83;100686.72;128561;1095;22343;-78
2021/08/10 07:50:20;;;;;;;4.90;3.18;;;;;;;30.81;31.62;100681.64;128673;1095;22442;-78
2021/08/10 07:52:52;;;;;;;6.63;2.43;;;;;;;30.85;32.21;100685.39;128739;1095;24509;-78
2021/08/10 07:55:22;;;;;;;5.40;2.30;;;;;;;30.88;31.63;100684.80;128720;1095;22301;-78
2021/08/10 07:57:52;;;;;;;5.53;2.83;;;;;;;31.08;31.70;100682.88;128589;1095;22356;-78
2021/08/10 08:00:22;;;;;;;6.48;3.15;;;;;;;31.07;31.39;100681.27;128351;1095;22169;-77
2021/08/10 08:02:52;;;;;;;5.80;2.50;;;;;;;30.92;31.84;100674.95;128310;1095;22355;-77
2021/08/10 08:05:23;;;;;;;5.95;3.60;;;;;;;30.83;31.88;100673.18;128642;1095;22348;-77
2021/08/10 08:07:53;;;;;;;4.38;2.73;;;;;;;30.72;32.08;100675.19;128334;1095;22363;-77
2021/08/10 08:10:23;;;;;;;4.43;2.05;;;;;;;30.57;31.87;100670.78;128903;1095;22450;-77
2021/08/10 08:13:13;;;;;;;5.73;3.10;;;;;;;30.19;32.43;100670.73;128618;1095;22347;-77
2021/08/10 08:15:43;;;;;;;4.83;2.30;;;;;;;29.95;32.16;100670.69;128344;1095;22343;-77
2021/08/10 08:18:14;;;;;;;3.88;2.65;;;;;;;29.78;32.82;100662.17;128313;1095;24599;-78
2021/08/10 08:20:46;;;;;;;5.78;2.03;;;;;;;29.67;32.68;100669.64;128872;1093;24509;-77
2021/08/10 08:23:18;;;;;;;5.70;2.65;;;;;;;29.50;32.97;100667.32;128294;1095;22366;-78
2021/08/10 08:25:47;;;;;;;7.40;2.35;;;;;;;29.45;32.78;100670.08;128305;1095;22385;-78
2021/08/10 08:28:17;;;;;;;7.45;2.95;;;;;;;29.50;33.12;100674.68;128296;1095;24471;-77
2021/08/10 08:30:48;;;;;;;;;;;;;;;29.73;33.46;100681.30;128383;1095;23290;-78
2021/08/10 08:33:18;;;;;;;8.20;2.53;;;;;;;29.85;32.66;100687.14;128550;1095;21340;-77
2021/08/10 08:35:48;;;;;;;9.28;4.30;;;;;;;29.86;32.86;100677.89;128343;1095;23115;-77
2021/08/10 08:38:20;;;;;;;5.73;2.60;;;;;;;29.94;33.07;100688.14;128410;1095;22356;-79
2021/08/10 08:40:51;;;;;;;4.83;2.98;;;;;;;30.12;32.67;100674.86;128645;1095;22363;-80
2021/08/10 08:43:22;;;;;;;4.88;2.03;;;;;;;30.28;31.81;100676.33;128339;1095;22346;-78
2021/08/10 08:45:54;;;;;;;6.98;2.63;;;;;;;30.44;32.38;100677.76;128380;1093;22392;-79
2021/08/10 08:48:29;;;;;;;4.68;3.05;;;;;;;30.73;31.75;100670.58;128401;1095;24188;-79
2021/08/10 08:51:01;;;;;;;4.85;2.40;;;;;;;30.88;30.99;100670.36;128584;1095;24498;-78
2021/08/10 08:53:34;;;;;;;4.48;1.78;;;;;;;31.00;30.58;100659.01;128604;1095;24502;-78
2021/08/10 08:56:04;;;;;;;4.75;1.75;;;;;;;31.16;30.87;100660.39;128367;1095;22350;-79
2021/08/10 08:58:34;;;;;;;5.38;1.93;;;;;;;31.14;29.63;100657.13;128589;1095;22345;-78
2021/08/10 09:01:07;;;;;;;2.65;1.68;;;;;;;30.85;29.06;100660.84;128448;1095;22313;-78
2021/08/10 09:03:37;;;;;;;4.50;1.73;;;;;;;30.83;29.23;100662.27;128246;1098;22360;-77
2021/08/10 09:06:12;;;;;;;4.75;1.70;;;;;;;30.87;28.66;100660.56;128255;1098;22361;-78
2021/08/10 09:08:43;;;;;;;3.38;1.60;;;;;;;30.85;29.05;100663.57;128061;1098;22379;-77
2021/08/10 09:11:20;;;;;;;7.13;3.98;;;;;;;31.06;29.32;100669.55;128252;1097;22683;-77
2021/08/10 09:14:03;;;;;;;3.90;1.80;;;;;;;31.10;28.90;100659.65;128270;1098;22363;-78
2021/08/10 09:17:12;;;;;;;3.80;2.03;;;;;;;30.92;29.00;100661.31;128263;1098;22376;-77
2021/08/10 09:19:54;;;;;;;6.30;1.98;;;;;;;30.89;29.07;100663.79;128172;1098;22383;-79
2021/08/10 09:22:32;;;;;;;2.38;1.53;;;;;;;30.84;29.06;100661.16;128434;1095;24170;-77
2021/08/10 09:25:35;;;;;;;2.93;1.78;;;;;;;30.99;29.31;100657.37;128260;1095;22347;-76
2021/08/10 09:28:10;;;;;;;8.25;1.88;;;;;;;31.14;28.92;100659.86;128593;1095;22357;-76
2021/08/10 09:30:47;;;;;;;4.10;2.13;;;;;;;31.34;28.71;100651.36;128314;1095;22366;-75
2021/08/10 09:33:17;;;;;;;3.45;2.10;;;;;;;31.45;28.84;100642.98;128304;1095;22369;-76
2021/08/10 09:35:51;;;;;;;4.80;3.30;;;;;;;31.49;28.65;100646.73;128561;1095;22366;-76
2021/08/10 09:38:21;;;;;;;4.95;1.35;;;;;;;31.43;27.65;100647.95;128335;1095;22350;-77
2021/08/10 09:40:52;;;;;;;5.38;1.40;;;;;;;31.47;27.75;100640.78;128289;1095;22362;-78
2021/08/10 09:43:32;;;;;;;3.95;1.53;;;;;;;31.48;27.04;100642.39;128349;1095;22362;-77
2021/08/10 09:46:25;;;;;;;4.65;1.60;;;;;;;31.31;26.80;100642.93;128613;1095;22363;-78
2021/08/10 09:48:57;;;;;;;4.08;1.95;;;;;;;31.43;27.23;100642.49;128382;1093;22366;-77
2021/08/10 09:51:32;;;;;;;4.75;2.00;;;;;;;31.46;26.69;100639.14;128402;1095;22345;-77
2021/08/10 09:54:09;;;;;;;2.70;1.83;;;;;;;31.18;26.13;100630.86;128426;1095;24488;-77
2021/08/10 09:57:03;;;;;;;3.60;1.38;;;;;;;30.99;25.72;100622.73;128401;1095;24153;-77
2021/08/10 09:59:42;;;;;;;12.38;2.45;;;;;;;31.13;26.58;100617.32;128324;1095;24163;-77
2021/08/10 10:02:23;;;;;;;6.03;3.95;;;;;;;31.20;26.17;100609.55;128332;1095;22354;-76
2021/08/10 10:04:59;;;;;;;2.70;1.50;;;;;;;31.12;26.11;100608.33;128327;1094;22347;-77
2021/08/10 10:07:28;;;;;;;5.63;1.80;;;;;;;31.03;26.25;100610.11;128374;1095;22346;-76
2021/08/10 10:10:04;;;;;;;7.88;7.08;;;;;;;30.87;26.74;100606.02;128681;1093;23113;-76
2021/08/10 10:12:40;;;;;;;2.15;1.60;;;;;;;30.75;26.77;100606.43;128568;1095;23133;-78
2021/08/10 10:15:11;;;;;;;2.85;1.23;;;;;;;30.68;26.41;100612.25;128939;1095;22450;-76
2021/08/10 10:17:43;;;;;;;5.03;1.88;;;;;;;30.70;27.21;100603.80;128702;1095;22354;-77
2021/08/10 10:20:13;;;;;;;4.13;1.50;;;;;;;30.87;27.63;100606.02;128302;1095;23142;-77
2021/08/10 10:22:46;;;;;;;3.05;1.83;;;;;;;30.94;26.80;100592.80;128379;1095;22351;-77
2021/08/10 10:25:16;;;;;;;3.38;1.90;;;;;;;30.88;26.24;100608.43;128396;1095;22343;-76
2021/08/10 10:27:45;;;;;;;;;;;;;;;30.90;26.81;100598.05;128625;1095;22365;-76
2021/08/10 10:30:15;;;;;;;2.53;1.50;;;;;;;30.99;26.10;100594.63;128536;1093;22347;-77
2021/08/10 10:32:45;;;;;;;6.15;2.13;;;;;;;30.84;25.91;100601.95;128334;1095;24240;-77
2021/08/10 10:35:18;;;;;;;2.57;1.53;;;;;;;30.82;26.53;100585.07;128319;1095;24240;-76
2021/08/10 10:37:50;;;;;;;5.33;1.70;;;;;;;30.87;25.91;100595.10;128336;1095;22348;-77
2021/08/10 10:40:23;;;;;;;4.60;1.45;;;;;;;31.00;25.46;100588.08;128336;1095;24495;-77
2021/08/10 10:42:56;;;;;;;2.33;1.53;;;;;;;30.99;25.43;100580.98;128313;1095;25021;-76
2021/08/10 10:45:34;;;;;;;4.55;1.95;;;;;;;30.93;25.08;100585.73;128562;1094;22345;-77
2021/08/10 10:48:23;;;;;;;2.50;1.78;;;;;;;30.76;25.52;100571.78;128640;1095;24470;-77
2021/08/10 10:51:11;;;;;;;7.80;2.28;;;;;;;30.74;26.21;100560.38;128590;1095;22562;-76
2021/08/10 10:53:46;;;;;;;4.65;4.18;;;;;;;30.69;26.35;100555.80;128354;1095;22883;-77
2021/08/10 10:56:28;;;;;;;3.18;1.65;;;;;;;30.72;26.19;100549.75;128343;1095;22346;-77
2021/08/10 10:59:29;;;;;;;5.00;1.80;;;;;;;30.65;25.87;100550.13;128581;1094;22347;-77
2021/08/10 11:02:14;;;;;;;3.30;1.40;;;;;;;30.41;26.41;100542.06;128586;1094;24244;-77
2021/08/10 11:05:09;;;;;;;3.58;1.43;;;;;;;30.25;26.86;100551.56;128567;1095;22667;-77
2021/08/10 11:07:43;;;;;;;4.30;1.38;;;;;;;30.17;26.94;100541.31;128610;1095;22350;-77
2021/08/10 11:10:57;;;;;;;2.45;1.68;;;;;;;30.06;27.00;100542.53;128606;1095;22341;-77
2021/08/10 11:13:36;;;;;;;5.30;2.03;;;;;;;29.88;27.60;100541.42;128031;1098;22394;-76
2021/08/10 11:16:06;;;;;;;4.73;1.90;;;;;;;29.72;26.97;100535.35;128041;1098;22363;-77
2021/08/10 11:18:36;;;;;;;2.85;1.40;;;;;;;29.54;26.95;100532.27;128227;1098;22382;-78
2021/08/10 11:21:08;;;;;;;3.73;2.33;;;;;;;29.55;27.82;100547.49;127949;1098;25447;-77
2021/08/10 11:23:42;;;;;;;4.60;1.80;;;;;;;29.51;27.65;100538.29;127950;1101;23318;-77
2021/08/10 11:26:13;;;;;;;2.98;1.70;;;;;;;29.42;27.80;100544.66;128202;1098;22380;-77
2021/08/10 11:28:50;;;;;;;3.88;1.70;;;;;;;29.32;28.20;100529.25;128194;1100;22354;-76
2021/08/10 11:31:41;;;;;;;4.53;2.08;;;;;;;29.13;28.11;100529.19;128058;1099;24199;-77
2021/08/10 11:34:33;;;;;;;2.73;1.70;;;;;;;29.06;28.76;100526.81;128026;1098;22375;-79
2021/08/10 11:37:25;;;;;;;5.55;2.65;;;;;;;28.96;28.67;100516.00;128037;1098;22363;-78
2021/08/10 11:40:11;;;;;;;3.30;1.48;;;;;;;28.93;28.88;100521.20;128283;1098;22371;-78
2021/08/10 11:42:43;;;;;;;4.85;2.40;;;;;;;28.98;29.17;100519.22;128239;1098;22334;-78
2021/08/10 11:45:12;;;;;;;4.80;2.00;;;;;;;29.05;28.59;100508.04;128039;1098;22742;-78